Time;durP1;ratioP1;P1;durP2;ratioP2;P2;SDS_P1;SDS_P2;PMS_P1;PMS_P2;Temp;Humidity;BMP_temperature;BMP_pressure;BME280_temperature;BME280_humidity;BME280_pressure;Samples;Min_cycle;Max_cycle;Signal;HPM_P1;HPM_P2
2022/04/13 00:01:34;;;;;;;;;;;14.50;85.70;;;;;;5002382;28;19948;-94
2022/04/13 00:04:07;;;;;;;;;;;14.50;85.70;;;;;;5018201;28;20020;-92
2022/04/13 00:06:38;;;;;;;;;;;14.50;85.70;;;;;;5018522;28;19936;-94
2022/04/13 00:09:18;;;;;;;;;;;14.40;85.70;;;;;;5018767;28;20022;-93
2022/04/13 00:11:54;;;;;;;;;;;14.40;85.70;;;;;;5002345;28;20076;-92
2022/04/13 00:14:25;;;;;;;;;;;14.40;85.80;;;;;;5018159;28;19909;-94
2022/04/13 00:17:02;;;;;;;;;;;14.40;85.90;;;;;;5018713;28;19909;-92
2022/04/13 00:19:28;;;;;;;;;;;14.40;86.00;;;;;;5002404;28;20003;-92
2022/04/13 00:22:02;;;;;;;;;;;14.30;86.10;;;;;;5016016;28;20105;-93
2022/04/13 00:24:40;;;;;;;;;;;14.30;86.20;;;;;;4983203;28;20010;-91
2022/04/13 00:27:13;;;;;;;;;;;14.20;86.30;;;;;;4998950;28;19913;-92
2022/04/13 00:29:45;;;;;;;;;;;14.20;86.50;;;;;;4999050;28;20361;-91
2022/04/13 00:32:29;;;;;;;;;;;;;;;;;;;;;
2022/04/13 00:35:04;;;;;;;;;;;14.20;86.80;;;;;;5020363;28;19927;-93
2022/04/13 00:37:57;;;;;;;;;;;14.10;86.80;;;;;;5018310;28;19909;-93
2022/04/13 00:40:27;;;;;;;;;;;14.10;86.90;;;;;;5011396;28;19914;-94
2022/04/13 00:43:13;;;;;;;;;;;14.10;87.10;;;;;;5002509;28;19918;-92
2022/04/13 00:45:53;;;;;;;;;;;14.00;87.10;;;;;;5019791;28;19917;-92
2022/04/13 00:48:43;;;;;;;;;;;14.00;87.30;;;;;;5042493;28;19904;-93
2022/04/13 00:51:31;;;;;;;;;;;;;;;;;;;;;
2022/04/13 00:54:53;;;;;;;;;;;14.00;87.50;;;;;;5041776;28;19937;-92
2022/04/13 00:57:15;;;;;;;;;;;13.90;87.60;;;;;;5009603;28;19913;-93
2022/04/13 00:59:57;;;;;;;;;;;13.90;87.80;;;;;;5002596;28;19931;-92
2022/04/13 01:02:36;;;;;;;;;;;13.80;87.90;;;;;;5008760;28;19932;-92
2022/04/13 01:05:05;;;;;;;;;;;13.90;88.10;;;;;;5021014;28;19921;-91
2022/04/13 01:07:58;;;;;;;;;;;13.80;88.20;;;;;;5020722;28;19917;-91
2022/04/13 01:16:24;;;;;;;;;;;13.70;88.50;;;;;;5024238;28;19972;-93
2022/04/13 01:19:13;;;;;;;;;;;13.70;88.70;;;;;;5009018;28;19944;-94
2022/04/13 01:21:44;;;;;;;;;;;13.60;88.70;;;;;;5020635;28;19915;-93
2022/04/13 01:24:26;;;;;;;;;;;13.60;88.90;;;;;;5019973;28;19921;-93
2022/04/13 01:26:52;;;;;;;;;;;13.60;89.00;;;;;;5020947;28;19932;-92
2022/04/13 01:29:36;;;;;;;;;;;13.50;89.00;;;;;;5020729;28;20318;-94
2022/04/13 01:32:14;;;;;;;;;;;13.50;89.20;;;;;;5021113;28;19909;-92
2022/04/13 01:35:01;;;;;;;;;;;13.50;89.30;;;;;;5020311;28;20357;-93
2022/04/13 01:37:36;;;;;;;;;;;13.50;89.30;;;;;;5038537;28;20373;-92
2022/04/13 01:40:05;;;;;;;;;;;13.40;89.30;;;;;;5020476;28;19948;-93
2022/04/13 01:42:35;;;;;;;;;;;13.40;89.40;;;;;;5038177;28;19909;-93
2022/04/13 01:46:05;;;;;;;;;;;;;;;;;;;;;
2022/04/13 01:47:58;;;;;;;;;;;13.40;89.50;;;;;;5017806;28;19909;-93
2022/04/13 01:50:27;;;;;;;;;;;13.40;89.50;;;;;;5020344;28;19915;-94
2022/04/13 01:53:16;;;;;;;;;;;13.30;89.60;;;;;;5003418;28;19913;-93
2022/04/13 01:56:29;;;;;;;;;;;13.30;89.70;;;;;;5022498;28;19924;-93
2022/04/13 01:59:07;;;;;;;;;;;;;;;;;;;;;
2022/04/13 02:04:35;;;;;;;;;;;13.20;90.00;;;;;;5037429;28;19925;-92
2022/04/13 02:07:15;;;;;;;;;;;13.20;90.10;;;;;;5019145;28;19925;-92
2022/04/13 02:09:46;;;;;;;;;;;13.20;90.10;;;;;;5020141;28;20361;-93
2022/04/13 02:12:27;;;;;;;;;;;;;;;;;;;;;
2022/04/13 02:14:59;;;;;;;;;;;13.10;90.20;;;;;;5037962;28;19913;-92
2022/04/13 02:18:02;;;;;;;;;;;13.10;90.20;;;;;;5018722;28;19955;-92
2022/04/13 02:20:33;;;;;;;;;;;13.10;90.30;;;;;;5014175;28;19916;-92
2022/04/13 02:23:09;;;;;;;;;;;;;;;;;;;;;
2022/04/13 02:25:40;;;;;;;;;;;13.00;90.40;;;;;;5037812;28;19909;-93
2022/04/13 02:28:05;;;;;;;;;;;13.00;90.40;;;;;;5018123;28;19923;-92
2022/04/13 02:31:02;;;;;;;;;;;12.90;90.40;;;;;;5001614;28;19969;-92
2022/04/13 02:33:31;;;;;;;;;;;12.90;90.50;;;;;;5021441;28;19902;-93
2022/04/13 02:36:08;;;;;;;;;;;12.90;90.50;;;;;;5022734;28;19904;-92
2022/04/13 02:38:37;;;;;;;;;;;12.90;90.50;;;;;;5059816;28;19901;-91
2022/04/13 02:41:10;;;;;;;;;;;12.90;90.60;;;;;;5042134;28;19905;-91
2022/04/13 02:47:00;;;;;;;;;;;12.80;90.60;;;;;;5026307;28;19913;-91
2022/04/13 02:50:02;;;;;;;;;;;12.80;90.60;;;;;;5002734;28;19916;-93
2022/04/13 02:52:32;;;;;;;;;;;12.90;90.70;;;;;;5021342;28;19959;-91
2022/04/13 02:55:04;;;;;;;;;;;12.90;90.70;;;;;;5021900;28;19897;-92
2022/04/13 02:57:29;;;;;;;;;;;12.90;90.70;;;;;;5024887;28;19931;-90
2022/04/13 03:00:07;;;;;;;;;;;12.80;90.70;;;;;;5039355;28;19917;-92
2022/04/13 03:02:46;;;;;;;;;;;12.90;90.70;;;;;;5021866;28;19910;-94
2022/04/13 03:05:14;;;;;;;;;;;12.80;90.80;;;;;;5019216;28;19913;-93
2022/04/13 03:07:58;;;;;;;;;;;12.90;90.80;;;;;;5018944;28;19921;-93
2022/04/13 03:10:29;;;;;;;;;;;12.90;90.80;;;;;;4999368;28;19914;-92
2022/04/13 03:12:54;;;;;;;;;;;12.90;90.90;;;;;;5000677;28;19973;-91
2022/04/13 03:15:49;;;;;;;;;;;12.80;90.90;;;;;;5019080;28;19959;-90
2022/04/13 03:18:27;;;;;;;;;;;;;;;;;;;;;
2022/04/13 03:20:53;;;;;;;;;;;12.80;91.00;;;;;;5037108;28;19972;-91
2022/04/13 03:23:36;;;;;;;;;;;12.80;91.00;;;;;;5018448;28;20019;-93
2022/04/13 03:26:40;;;;;;;;;;;12.80;91.10;;;;;;5018502;28;19921;-93
2022/04/13 03:29:15;;;;;;;;;;;12.80;91.10;;;;;;5019265;28;19913;-93
2022/04/13 03:37:23;;;;;;;;;;;12.80;91.50;;;;;;5040881;28;19909;-92
2022/04/13 03:40:00;;;;;;;;;;;12.80;91.30;;;;;;5018842;28;19913;-93
2022/04/13 03:42:58;;;;;;;;;;;12.70;91.30;;;;;;5003177;28;19914;-91
2022/04/13 03:45:26;;;;;;;;;;;12.70;91.40;;;;;;4999209;28;20024;-92
2022/04/13 03:50:57;;;;;;;;;;;12.70;91.50;;;;;;5035135;28;20384;-87
2022/04/13 03:53:25;;;;;;;;;;;12.70;91.80;;;;;;5016566;28;19916;-87
2022/04/13 03:55:59;;;;;;;;;;;12.70;91.60;;;;;;5016672;28;19914;-87
2022/04/13 03:58:27;;;;;;;;;;;12.70;91.70;;;;;;5017516;28;19917;-87
2022/04/13 04:00:55;;;;;;;;;;;12.60;91.70;;;;;;5016921;28;19910;-85
2022/04/13 04:03:21;;;;;;;;;;;12.60;91.80;;;;;;5017573;28;19917;-85
2022/04/13 04:05:47;;;;;;;;;;;12.50;91.80;;;;;;5001156;28;19971;-85
2022/04/13 04:08:18;;;;;;;;;;;12.50;91.80;;;;;;5000494;28;19966;-85
2022/04/13 04:10:49;;;;;;;;;;;12.50;91.90;;;;;;5016734;28;19996;-85
2022/04/13 04:13:14;;;;;;;;;;;12.40;91.90;;;;;;5017215;28;20266;-85
2022/04/13 04:15:49;;;;;;;;;;;12.40;92.00;;;;;;5026494;28;19900;-89
2022/04/13 04:18:15;;;;;;;;;;;12.30;92.00;;;;;;5040660;28;19917;-86
2022/04/13 04:20:41;;;;;;;;;;;12.40;92.10;;;;;;5040923;28;19920;-87
2022/04/13 04:23:06;;;;;;;;;;;12.30;92.10;;;;;;5043857;28;19905;-86
2022/04/13 04:25:37;;;;;;;;;;;12.20;92.10;;;;;;5035032;28;20361;-85
2022/04/13 04:28:03;;;;;;;;;;;12.20;92.20;;;;;;5004251;28;19920;-85
2022/04/13 04:30:31;;;;;;;;;;;12.20;92.20;;;;;;5020500;28;20000;-86
2022/04/13 04:32:59;;;;;;;;;;;12.20;92.30;;;;;;5020195;28;19948;-85
2022/04/13 04:35:32;;;;;;;;;;;12.10;92.30;;;;;;5019940;28;19920;-85
2022/04/13 04:37:58;;;;;;;;;;;12.10;92.40;;;;;;5019863;28;19909;-85
2022/04/13 04:40:24;;;;;;;;;;;12.10;92.50;;;;;;5020059;28;20334;-86
2022/04/13 04:42:50;;;;;;;;;;;12.10;92.50;;;;;;5019733;28;19975;-85
2022/04/13 04:45:34;;;;;;;;;;;12.00;92.60;;;;;;5019830;28;19909;-85
2022/04/13 04:48:09;;;;;;;;;;;11.90;92.60;;;;;;5020221;28;20004;-87
2022/04/13 04:50:42;;;;;;;;;;;11.90;92.70;;;;;;5004575;28;19927;-87
2022/04/13 04:53:31;;;;;;;;;;;11.90;92.80;;;;;;5004612;28;19914;-87
2022/04/13 04:56:08;;;;;;;;;;;11.80;92.80;;;;;;5038159;28;20007;-88
2022/04/13 04:58:46;;;;;;;;;;;;;;;;;;;;;
2022/04/13 05:01:15;;;;;;;;;;;11.80;92.90;;;;;;5021948;28;19917;-87
2022/04/13 05:03:50;;;;;;;;;;;11.70;92.90;;;;;;5020255;28;19917;-88
2022/04/13 05:06:51;;;;;;;;;;;11.70;93.00;;;;;;5004242;28;20285;-87
2022/04/13 05:09:35;;;;;;;;;;;;;;;;;;;;;
2022/04/13 05:12:04;;;;;;;;;;;11.70;93.10;;;;;;5020942;28;19913;-87
2022/04/13 05:14:56;;;;;;;;;;;11.70;93.20;;;;;;5037716;28;20304;-90
2022/04/13 05:17:27;;;;;;;;;;;11.60;93.20;;;;;;5021524;28;19960;-87
2022/04/13 05:19:55;;;;;;;;;;;11.60;93.20;;;;;;5005482;28;20260;-87
2022/04/13 05:22:42;;;;;;;;;;;11.60;93.30;;;;;;5040321;28;20419;-89
2022/04/13 05:25:20;;;;;;;;;;;11.60;93.30;;;;;;5038739;28;19917;-89
2022/04/13 05:27:53;;;;;;;;;;;11.60;93.40;;;;;;5021890;28;19957;-87
2022/04/13 05:30:42;;;;;;;;;;;11.60;93.40;;;;;;5021068;28;19916;-91
2022/04/13 05:33:23;;;;;;;;;;;;;;;;;;;;;
2022/04/13 05:36:16;;;;;;;;;;;;;;;;;;;;;
2022/04/13 05:45:05;;;;;;;;;;;;;;;;;;;;;
2022/04/13 05:48:05;;;;;;;;;;;;;;;;;;;;;
2022/04/13 05:54:12;;;;;;;;;;;11.80;93.70;;;;;;4986367;28;19910;-91
2022/04/13 05:57:07;;;;;;;;;;;;;;;;;;;;;
2022/04/13 05:59:46;;;;;;;;;;;;;;;;;;;;;
2022/04/13 06:02:12;;;;;;;;;;;12.00;93.60;;;;;;4983731;28;19902;-89
2022/04/13 06:07:43;;;;;;;;;;;12.10;93.50;;;;;;5055417;28;20010;-88
2022/04/13 06:10:21;;;;;;;;;;;;;;;;;;;;;
2022/04/13 06:12:58;;;;;;;;;;;12.20;93.50;;;;;;5043332;28;20004;-87
2022/04/13 06:15:31;;;;;;;;;;;12.20;93.50;;;;;;5007915;28;19913;-89
2022/04/13 06:18:02;;;;;;;;;;;12.30;93.40;;;;;;5020156;28;20361;-86
2022/04/13 06:20:28;;;;;;;;;;;12.40;93.50;;;;;;5020232;28;20277;-87
2022/04/13 06:23:01;;;;;;;;;;;12.40;93.50;;;;;;5019785;28;19916;-87
2022/04/13 06:25:27;;;;;;;;;;;12.50;93.60;;;;;;5004647;28;20384;-87
2022/04/13 06:27:56;;;;;;;;;;;12.50;93.50;;;;;;5020946;28;19909;-88
2022/04/13 06:30:26;;;;;;;;;;;12.60;93.60;;;;;;5020807;28;19916;-88
2022/04/13 06:33:03;;;;;;;;;;;12.60;93.60;;;;;;5004962;28;19913;-88
2022/04/13 06:35:33;;;;;;;;;;;12.70;93.60;;;;;;5005347;28;19913;-87
2022/04/13 06:38:04;;;;;;;;;;;12.80;93.60;;;;;;5019626;28;19964;-87
2022/04/13 06:40:40;;;;;;;;;;;12.90;93.60;;;;;;5019465;28;20012;-88
2022/04/13 06:43:08;;;;;;;;;;;12.90;93.60;;;;;;5018935;28;19921;-87
2022/04/13 06:45:36;;;;;;;;;;;13.00;93.70;;;;;;5000720;28;19913;-87
2022/04/13 06:48:12;;;;;;;;;;;13.10;93.70;;;;;;5018175;28;19909;-87
2022/04/13 06:50:43;;;;;;;;;;;13.20;93.70;;;;;;5017928;28;19916;-89
2022/04/13 06:53:18;;;;;;;;;;;13.30;93.80;;;;;;5017968;28;19916;-87
2022/04/13 06:55:49;;;;;;;;;;;13.40;93.80;;;;;;5018061;28;19909;-89
2022/04/13 06:58:23;;;;;;;;;;;13.50;93.80;;;;;;5017889;28;19940;-87
2022/04/13 07:00:50;;;;;;;;;;;13.50;93.80;;;;;;5035451;28;20336;-90
2022/04/13 07:03:26;;;;;;;;;;;13.60;93.80;;;;;;5001163;28;19921;-88
2022/04/13 07:05:52;;;;;;;;;;;13.70;93.90;;;;;;5017608;28;19916;-87
2022/04/13 07:08:18;;;;;;;;;;;13.70;94.00;;;;;;5017841;28;20373;-87
2022/04/13 07:10:44;;;;;;;;;;;13.80;94.00;;;;;;5035158;28;20358;-87
2022/04/13 07:13:16;;;;;;;;;;;13.80;93.90;;;;;;5017615;28;19909;-87
2022/04/13 07:15:47;;;;;;;;;;;13.90;94.20;;;;;;5017366;28;20357;-88
2022/04/13 07:18:15;;;;;;;;;;;14.00;94.20;;;;;;5017246;28;20003;-87
2022/04/13 07:20:42;;;;;;;;;;;14.00;94.10;;;;;;5017330;28;19910;-87
2022/04/13 07:23:42;;;;;;;;;;;14.10;94.00;;;;;;5017446;28;20007;-88
2022/04/13 07:26:17;;;;;;;;;;;;;;;;;;;;;
2022/04/13 07:31:50;;;;;;;;;;;;;;;;;;;;;
2022/04/13 07:34:21;;;;;;;;;;;14.20;94.20;;;;;;5034963;28;20258;-88
2022/04/13 07:36:51;;;;;;;;;;;14.20;94.20;;;;;;5017608;28;19909;-88
2022/04/13 07:39:52;;;;;;;;;;;14.30;94.30;;;;;;5002168;28;19948;-89
2022/04/13 07:46:06;;;;;;;;;;;;;;;;;;;;;
2022/04/13 07:52:04;;;;;;;;;;;14.50;94.30;;;;;;5011686;28;19932;-88
2022/04/13 07:54:34;;;;;;;;;;;14.60;94.30;;;;;;5006766;28;19913;-90
2022/04/13 07:57:29;;;;;;;;;;;14.60;94.20;;;;;;5005770;28;19936;-88
2022/04/13 08:00:04;;;;;;;;;;;;;;;;;;;;;
2022/04/13 08:03:06;;;;;;;;;;;;;;;;;;;;;
2022/04/13 08:05:41;;;;;;;;;;;14.70;94.30;;;;;;5039302;28;19939;-90
2022/04/13 08:11:30;;;;;;;;;;;;;;;;;;;;;
2022/04/13 08:17:08;;;;;;;;;;;;;;;;;;;;;
2022/04/13 08:19:44;;;;;;;;;;;14.90;94.30;;;;;;5040409;28;19909;-87
2022/04/13 08:22:21;;;;;;;;;;;14.90;94.40;;;;;;5023728;28;19964;-87
2022/04/13 08:25:24;;;;;;;;;;;15.00;94.30;;;;;;5022060;28;19924;-88
2022/04/13 08:28:08;;;;;;;;;;;;;;;;;;;;;
2022/04/13 08:30:37;;;;;;;;;;;15.10;94.30;;;;;;5039029;28;19913;-88
2022/04/13 08:33:23;;;;;;;;;;;15.20;94.20;;;;;;5021063;28;19959;-88
2022/04/13 08:36:10;;;;;;;;;;;15.30;94.20;;;;;;5020821;28;20004;-88
2022/04/13 08:39:13;;;;;;;;;;;15.30;94.10;;;;;;5037978;28;19909;-89
2022/04/13 08:41:46;;;;;;;;;;;15.30;94.20;;;;;;5033560;28;20226;-88
2022/04/13 08:44:37;;;;;;;;;;;15.40;94.10;;;;;;5020164;28;19936;-88
2022/04/13 08:47:23;;;;;;;;;;;15.40;94.10;;;;;;5020457;28;19917;-88
2022/04/13 08:49:59;;;;;;;;;;;15.50;94.00;;;;;;5020203;28;20376;-88
2022/04/13 08:52:48;;;;;;;;;;;15.50;93.90;;;;;;5004197;28;19917;-88
2022/04/13 08:55:36;;;;;;;;;;;15.60;93.90;;;;;;4984966;28;19916;-87
2022/04/13 08:58:34;;;;;;;;;;;15.60;93.80;;;;;;5036849;28;19968;-88
2022/04/13 09:01:16;;;;;;;;;;;15.70;93.80;;;;;;5013420;28;19909;-92
2022/04/13 09:06:37;;;;;;;;;;;15.80;93.70;;;;;;5025574;28;19929;-88
2022/04/13 09:09:05;;;;;;;;;;;15.90;93.70;;;;;;5019425;28;19913;-88
2022/04/13 09:12:00;;;;;;;;;;;15.90;93.60;;;;;;5019514;28;19924;-88
2022/04/13 09:14:31;;;;;;;;;;;16.00;93.60;;;;;;5008861;28;19978;-88
2022/04/13 09:17:13;;;;;;;;;;;16.00;93.70;;;;;;5019937;28;19937;-87
2022/04/13 09:19:49;;;;;;;;;;;16.10;93.50;;;;;;5020039;28;19959;-88
2022/04/13 09:22:31;;;;;;;;;;;16.20;93.40;;;;;;5019578;28;19915;-88
2022/04/13 09:25:02;;;;;;;;;;;16.20;93.40;;;;;;5019206;28;20332;-88
2022/04/13 09:27:44;;;;;;;;;;;16.30;93.30;;;;;;5020074;28;19916;-88
2022/04/13 09:30:10;;;;;;;;;;;16.40;93.30;;;;;;5005012;28;20424;-88
2022/04/13 09:32:46;;;;;;;;;;;16.50;93.20;;;;;;5020479;28;19944;-88
2022/04/13 09:35:41;;;;;;;;;;;16.60;93.20;;;;;;5036158;28;19920;-91
2022/04/13 09:38:19;;;;;;;;;;;;;;;;;;;;;
2022/04/13 09:40:44;;;;;;;;;;;16.80;93.00;;;;;;5060764;28;19901;-87
2022/04/13 09:43:13;;;;;;;;;;;16.90;92.80;;;;;;5027459;28;19940;-88
2022/04/13 09:45:42;;;;;;;;;;;17.00;92.80;;;;;;5003523;28;19947;-88
2022/04/13 09:51:18;;;;;;;;;;;17.10;92.70;;;;;;5032989;28;19954;-88
2022/04/13 09:54:06;;;;;;;;;;;17.10;92.80;;;;;;5018908;28;19913;-88
2022/04/13 09:56:38;;;;;;;;;;;17.20;92.30;;;;;;5018457;28;19909;-88
2022/04/13 09:59:15;;;;;;;;;;;17.20;92.10;;;;;;5019052;28;20367;-88
2022/04/13 10:02:14;;;;;;;;;;;;;;;;;;;;;
2022/04/13 10:08:10;;;;;;;;;;;;;;;;;;;;;
2022/04/13 10:10:59;;;;;;;;;;;17.30;91.80;;;;;;5036802;28;19913;-89
2022/04/13 10:13:37;;;;;;;;;;;17.30;91.80;;;;;;5003920;28;20280;-87
2022/04/13 10:16:03;;;;;;;;;;;17.40;91.80;;;;;;5018820;28;20008;-88
2022/04/13 10:18:36;;;;;;;;;;;17.40;91.70;;;;;;5018964;28;19916;-88
2022/04/13 10:21:04;;;;;;;;;;;17.40;91.60;;;;;;5019315;28;19909;-89
2022/04/13 10:23:44;;;;;;;;;;;17.40;91.70;;;;;;5019037;28;19921;-88
2022/04/13 10:26:25;;;;;;;;;;;;;;;;;;;;;
2022/04/13 10:28:54;;;;;;;;;;;17.40;91.50;;;;;;5020146;28;19913;-88
2022/04/13 10:31:39;;;;;;;;;;;17.30;91.50;;;;;;5018412;28;19913;-88
2022/04/13 10:34:10;;;;;;;;;;;17.40;91.60;;;;;;5018188;28;20032;-88
2022/04/13 10:36:43;;;;;;;;;;;17.40;91.60;;;;;;5001315;28;19913;-87
2022/04/13 10:39:38;;;;;;;;;;;17.40;91.60;;;;;;5017892;28;19909;-92
2022/04/13 10:42:15;;;;;;;;;;;17.40;91.60;;;;;;5018363;28;19940;-88
2022/04/13 10:45:09;;;;;;;;;;;17.30;91.60;;;;;;5003037;28;20015;-88
2022/04/13 10:48:01;;;;;;;;;;;17.30;91.60;;;;;;5035338;28;20328;-88
2022/04/13 10:50:43;;;;;;;;;;;17.40;91.60;;;;;;5034837;28;20373;-88
2022/04/13 10:53:32;;;;;;;;;;;17.30;91.60;;;;;;5017093;28;19910;-88
2022/04/13 10:55:57;;;;;;;;;;;17.30;91.50;;;;;;5002553;28;19909;-87
2022/04/13 10:58:28;;;;;;;;;;;17.20;91.50;;;;;;5017970;28;19910;-87
2022/04/13 11:01:01;;;;;;;;;;;17.10;91.50;;;;;;5017862;28;19956;-87
2022/04/13 11:03:53;;;;;;;;;;;17.10;91.50;;;;;;5017853;28;20324;-87
2022/04/13 11:06:25;;;;;;;;;;;17.10;91.50;;;;;;5033987;28;19909;-87
2022/04/13 11:09:10;;;;;;;;;;;;;;;;;;;;;
2022/04/13 11:11:49;;;;;;;;;;;;;;;;;;;;;
2022/04/13 11:14:26;;;;;;;;;;;17.00;91.40;;;;;;5035393;28;20032;-88
2022/04/13 11:17:13;;;;;;;;;;;17.10;91.40;;;;;;5017779;28;19909;-88
2022/04/13 11:19:42;;;;;;;;;;;17.10;91.40;;;;;;5035676;28;19909;-87
2022/04/13 11:22:33;;;;;;;;;;;17.10;91.40;;;;;;5034028;28;19893;-87
2022/04/13 11:25:14;;;;;;;;;;;17.10;91.30;;;;;;5041215;28;19921;-87
2022/04/13 11:27:52;;;;;;;;;;;17.10;91.40;;;;;;5041295;28;19917;-88
2022/04/13 11:30:20;;;;;;;;;;;17.10;91.40;;;;;;5035069;28;20484;-92
2022/04/13 11:32:52;;;;;;;;;;;17.10;91.30;;;;;;5041303;28;19905;-87
2022/04/13 11:35:51;;;;;;;;;;;17.10;91.20;;;;;;5024821;28;19921;-88
2022/04/13 11:38:17;;;;;;;;;;;17.10;91.10;;;;;;5035756;28;19916;-88
2022/04/13 11:41:05;;;;;;;;;;;17.00;91.10;;;;;;5017802;28;20277;-86
2022/04/13 11:43:52;;;;;;;;;;;17.00;91.10;;;;;;5035073;28;19920;-87
2022/04/13 11:49:52;;;;;;;;;;;16.90;91.10;;;;;;5031148;28;19972;-88
2022/04/13 11:52:46;;;;;;;;;;;16.90;91.20;;;;;;5005801;28;19913;-89
2022/04/13 11:58:25;;;;;;;;;;;16.90;91.20;;;;;;5027288;28;20000;-88
2022/04/13 12:01:30;;;;;;;;;;;;;;;;;;;;;
2022/04/13 14:01:08;;;;;;;;;;;16.30;92.80;;;;;;4951922;29;19978;-91
2022/04/13 14:10:36;;;;;;;;;;;;;;;;;;;;;
2022/04/13 14:13:00;;;;;;;;;;;16.20;93.10;;;;;;5028286;28;19910;-87
2022/04/13 14:24:49;;;;;;;;;;;16.10;93.30;;;;;;4973537;29;19978;-94
2022/04/13 14:27:40;;;;;;;;;;;16.10;93.30;;;;;;4964004;28;19917;-90
2022/04/13 14:30:20;;;;;;;;;;;16.10;93.40;;;;;;4976668;28;19911;-89
2022/04/13 14:39:36;;;;;;;;;;;;;;;;;;;;;
2022/04/13 14:42:48;;;;;;;;;;;;;;;;;;;;;
2022/04/13 14:45:58;;;;;;;;;;;16.00;94.10;;;;;;4988410;28;19925;-89
2022/04/13 14:51:34;;;;;;;;;;;16.00;94.40;;;;;;4937273;29;19926;-92
2022/04/13 14:54:00;;;;;;;;;;;16.10;94.50;;;;;;4989057;28;19910;-87
2022/04/13 14:56:56;;;;;;;;;;;16.10;94.60;;;;;;4995899;28;19937;-89
2022/04/13 14:59:49;;;;;;;;;;;16.00;94.50;;;;;;4959539;28;19910;-89
2022/04/13 15:05:39;;;;;;;;;;;;;;;;;;;;;
2022/04/13 15:08:18;;;;;;;;;;;;;;;;;;;;;
2022/04/13 15:14:07;;;;;;;;;;;16.00;94.80;;;;;;5032637;28;19957;-91
2022/04/13 20:48:22;;;;;;;;;;;13.70;98.60;;;;;;4626336;24;19927;31
2022/04/13 20:51:48;;;;;;;;;;;;;;;;;;;;;
2022/04/13 21:10:58;;;;;;;;;;;;;;;;;;;;;
2022/04/13 21:30:00;;;;;;;;;;;;;;;;;;;;;
2022/04/13 21:55:17;;;;;;;;;;;;;;;;;;;;;
2022/04/13 22:43:02;;;;;;;;;;;;;;;;;;;;;
2022/04/13 23:06:53;;;;;;;;;;;;;;;;;;;;;
